Time;durP1;ratioP1;P1;durP2;ratioP2;P2;SDS_P1;SDS_P2;PMS_P1;PMS_P2;Temp;Humidity;BMP_temperature;BMP_pressure;BME280_temperature;BME280_humidity;BME280_pressure;Samples;Min_cycle;Max_cycle;Signal;HPM_P1;HPM_P2
2020/07/04 00:01:46;;;;;;;4;3;;;;;;;16.61;100;962.1397;;;;
2020/07/04 00:04:11;;;;;;;5.3;3;;;;;;;16.65;100;962.147;;;;
2020/07/04 00:06:37;;;;;;;4.1;3.1;;;;;;;16.61;100;962.199;;;;
2020/07/04 00:09:13;;;;;;;3.7;3;;;;;;;16.48;100;962.1461;;;;
2020/07/04 00:11:42;;;;;;;4.2;2.8;;;;;;;16.52;100;962.1348;;;;
2020/07/04 00:14:09;;;;;;;4.8;3.4;;;;;;;16.48;100;962.1199;;;;
2020/07/04 00:16:39;;;;;;;4.5;3.1;;;;;;;16.52;100;962.1283;;;;
2020/07/04 00:19:11;;;;;;;4.4;3.2;;;;;;;16.5;100;962.1018;;;;
2020/07/04 00:21:42;;;;;;;4.2;3.3;;;;;;;16.5;100;962.0712;;;;
2020/07/04 00:24:07;;;;;;;5.5;3.5;;;;;;;16.46;100;962.1208;;;;
2020/07/04 00:26:39;;;;;;;6.5;3.2;;;;;;;16.31;100;962.1035;;;;
2020/07/04 00:29:04;;;;;;;5.6;3.7;;;;;;;16.32;100;962.0894;;;;
2020/07/04 00:31:34;;;;;;;4.1;3.7;;;;;;;16.34;100;962.027;;;;
2020/07/04 00:33:59;;;;;;;5.8;3.5;;;;;;;16.29;100;962.0375;;;;
2020/07/04 00:36:35;;;;;;;5.8;3.4;;;;;;;16.26;100;962.0342;;;;
2020/07/04 00:39:06;;;;;;;5.1;3.6;;;;;;;16.28;100;962.0524;;;;
2020/07/04 00:41:36;;;;;;;3.8;3.4;;;;;;;16.32;100;962.0376;;;;
2020/07/04 00:44:04;;;;;;;4.2;3.3;;;;;;;16.31;100;962.0252;;;;
2020/07/04 00:46:33;;;;;;;4.2;3.4;;;;;;;16.37;100;961.9982;;;;
2020/07/04 00:49:02;;;;;;;5.2;3.3;;;;;;;16.29;100;961.9528;;;;
2020/07/04 00:51:42;;;;;;;4.6;3.4;;;;;;;16.28;100;961.9496;;;;
2020/07/04 00:54:08;;;;;;;5.2;3.6;;;;;;;16.21;100;961.9182;;;;
2020/07/04 00:56:36;;;;;;;4.1;3.1;;;;;;;16.26;100;961.9042;;;;
2020/07/04 00:59:01;;;;;;;5.3;3.4;;;;;;;16.2;100;961.8499;;;;
2020/07/04 01:01:40;;;;;;;5.4;3.4;;;;;;;16.24;100;961.8375;;;;
2020/07/04 01:04:13;;;;;;;5.5;3.6;;;;;;;16.19;100;961.8517;;;;
2020/07/04 01:06:38;;;;;;;4.5;3.2;;;;;;;16.13;100;961.8574;;;;
2020/07/04 01:09:06;;;;;;;4;3.4;;;;;;;16.1;100;961.8269;;;;
2020/07/04 01:11:33;;;;;;;4.4;3.6;;;;;;;16.07;100;961.7949;;;;
2020/07/04 01:14:10;;;;;;;5;3.7;;;;;;;16.05;100;961.8062;;;;
2020/07/04 01:16:45;;;;;;;7.9;4.2;;;;;;;15.99;100;961.8669;;;;
2020/07/04 01:19:17;;;;;;;4.7;3.8;;;;;;;16.05;100;961.7642;;;;
2020/07/04 01:21:45;;;;;;;4.4;3.6;;;;;;;16.12;100;961.8062;;;;
2020/07/04 01:24:10;;;;;;;5.9;3.8;;;;;;;16.14;100;961.798;;;;
2020/07/04 01:26:44;;;;;;;6;3.8;;;;;;;16.01;100;961.7372;;;;
2020/07/04 01:29:18;;;;;;;5.5;3.9;;;;;;;16.03;100;961.7609;;;;
2020/07/04 01:31:49;;;;;;;3.9;3.4;;;;;;;15.98;100;961.774;;;;
2020/07/04 01:34:15;;;;;;;4.7;3.8;;;;;;;15.97;100;961.7739;;;;
2020/07/04 01:36:43;;;;;;;5.8;3.8;;;;;;;15.86;100;961.7888;;;;
2020/07/04 01:39:10;;;;;;;4.8;3.5;;;;;;;15.78;100;961.8;;;;
2020/07/04 01:41:49;;;;;;;4.6;3.8;;;;;;;15.78;100;961.8402;;;;
2020/07/04 01:44:23;;;;;;;5.1;3.8;;;;;;;15.64;100;961.8298;;;;
2020/07/04 01:46:57;;;;;;;5.3;3.7;;;;;;;15.64;100;961.8254;;;;
2020/07/04 01:49:25;;;;;;;4.5;3.5;;;;;;;15.71;100;961.8155;;;;
2020/07/04 01:51:57;;;;;;;4.9;3.8;;;;;;;15.68;100;961.8417;;;;
2020/07/04 01:54:28;;;;;;;4;3.6;;;;;;;15.67;100;961.7952;;;;
2020/07/04 01:57:02;;;;;;;5.7;3.9;;;;;;;15.69;100;961.8549;;;;
2020/07/04 01:59:36;;;;;;;4.8;3.8;;;;;;;15.58;100;961.8606;;;;
2020/07/04 02:02:04;;;;;;;4.8;3.7;;;;;;;15.55;100;961.8318;;;;
2020/07/04 02:04:50;;;;;;;4.6;3.8;;;;;;;15.56;100;961.8386;;;;
2020/07/04 02:07:18;;;;;;;4.9;3.9;;;;;;;15.55;100;961.7775;;;;
2020/07/04 02:09:51;;;;;;;4.7;3.9;;;;;;;15.52;100;961.7908;;;;
2020/07/04 02:12:23;;;;;;;5.7;3.9;;;;;;;15.43;100;961.8256;;;;
2020/07/04 02:14:54;;;;;;;6.4;4.1;;;;;;;15.4;100;961.8469;;;;
2020/07/04 02:17:31;;;;;;;4.7;4;;;;;;;15.33;100;961.7999;;;;
2020/07/04 02:20:05;;;;;;;5.1;4;;;;;;;15.32;100;961.7416;;;;
2020/07/04 02:22:33;;;;;;;7.5;4;;;;;;;15.22;100;961.782;;;;
2020/07/04 02:25:08;;;;;;;5.3;3.9;;;;;;;15.27;100;961.8226;;;;
2020/07/04 02:27:48;;;;;;;4.1;3.6;;;;;;;15.32;100;961.7966;;;;
2020/07/04 02:30:31;;;;;;;6;3.8;;;;;;;15.23;100;961.8044;;;;
2020/07/04 02:33:09;;;;;;;4.9;3.8;;;;;;;15.2;100;961.907;;;;
2020/07/04 02:35:53;;;;;;;5;3.8;;;;;;;15.26;100;961.9269;;;;
2020/07/04 02:38:33;;;;;;;5.9;3.7;;;;;;;15.26;100;961.899;;;;
2020/07/04 02:41:10;;;;;;;5.6;3.8;;;;;;;15.21;100;961.9644;;;;
2020/07/04 02:43:39;;;;;;;4;3.5;;;;;;;15.2;100;961.9883;;;;
2020/07/04 02:46:19;;;;;;;5.8;3.6;;;;;;;15.18;100;961.9716;;;;
2020/07/04 02:48:46;;;;;;;4.6;3.9;;;;;;;15.17;100;961.9758;;;;
2020/07/04 02:51:19;;;;;;;5.6;4.1;;;;;;;15.21;100;962.017;;;;
2020/07/04 02:53:44;;;;;;;4.5;3.7;;;;;;;15.22;100;962.039;;;;
2020/07/04 02:56:09;;;;;;;5.8;4;;;;;;;15.15;100;962.001;;;;
2020/07/04 02:58:34;;;;;;;5.3;4.1;;;;;;;15.04;100;961.9732;;;;
2020/07/04 03:00:59;;;;;;;5.9;4.3;;;;;;;15.01;100;962.0133;;;;
2020/07/04 03:03:26;;;;;;;5.3;3.8;;;;;;;14.99;100;962.0215;;;;
2020/07/04 03:05:51;;;;;;;5;4;;;;;;;14.82;100;961.9967;;;;
2020/07/04 03:08:16;;;;;;;4.8;4.3;;;;;;;14.7;100;962.0237;;;;
2020/07/04 03:10:41;;;;;;;7.1;4.4;;;;;;;14.51;100;961.9462;;;;
2020/07/04 03:13:08;;;;;;;8;4.8;;;;;;;14.56;100;961.9677;;;;
2020/07/04 03:15:33;;;;;;;5.7;4.8;;;;;;;14.52;100;962.0036;;;;
2020/07/04 03:18:00;;;;;;;6.5;4.6;;;;;;;14.65;100;962.0151;;;;
2020/07/04 03:20:25;;;;;;;5.7;4.5;;;;;;;14.61;100;962.0256;;;;
2020/07/04 03:22:50;;;;;;;7.5;4.9;;;;;;;14.48;100;962.0634;;;;
2020/07/04 03:25:15;;;;;;;5.9;4.7;;;;;;;14.48;100;962.067;;;;
2020/07/04 03:27:41;;;;;;;7.2;5;;;;;;;14.59;100;962.1089;;;;
2020/07/04 03:30:06;;;;;;;6.1;4.6;;;;;;;14.69;100;962.0795;;;;
2020/07/04 03:32:31;;;;;;;6.1;4.3;;;;;;;14.63;100;962.0832;;;;
2020/07/04 03:34:56;;;;;;;5.8;4.4;;;;;;;14.64;100;962.079;;;;
2020/07/04 03:37:21;;;;;;;4.9;4.4;;;;;;;14.54;100;962.1241;;;;
2020/07/04 03:39:47;;;;;;;5;4.3;;;;;;;14.63;100;962.1174;;;;
2020/07/04 03:42:12;;;;;;;6;4.5;;;;;;;14.73;100;962.1733;;;;
2020/07/04 03:44:38;;;;;;;5.3;4.5;;;;;;;14.65;100;962.1561;;;;
2020/07/04 03:47:03;;;;;;;8.1;4.9;;;;;;;14.46;100;962.1922;;;;
2020/07/04 03:49:28;;;;;;;6.4;4.8;;;;;;;14.44;100;962.1863;;;;
2020/07/04 03:51:53;;;;;;;7;4.7;;;;;;;14.38;100;962.1202;;;;
2020/07/04 03:54:19;;;;;;;5.6;4.6;;;;;;;14.59;100;962.1336;;;;
2020/07/04 03:56:44;;;;;;;6.3;4.5;;;;;;;14.55;100;962.1293;;;;
2020/07/04 03:59:09;;;;;;;5.2;4.5;;;;;;;14.62;100;962.1379;;;;
2020/07/04 04:02:29;;;;;;;7.8;4.7;;;;;;;14.61;100;962.1199;;;;
2020/07/04 04:04:54;;;;;;;5.7;4.7;;;;;;;14.54;100;962.1539;;;;
2020/07/04 04:07:20;;;;;;;7.9;4.5;;;;;;;14.5;100;962.144;;;;
2020/07/04 04:09:45;;;;;;;7.2;4.7;;;;;;;14.64;100;962.1406;;;;
2020/07/04 04:12:11;;;;;;;6.4;4.3;;;;;;;14.72;100;962.1248;;;;
2020/07/04 04:14:36;;;;;;;7.5;4.8;;;;;;;14.63;100;962.171;;;;
2020/07/04 04:17:02;;;;;;;4.9;4.4;;;;;;;14.69;100;962.1917;;;;
2020/07/04 04:19:28;;;;;;;5.4;4.8;;;;;;;14.71;100;962.2157;;;;
2020/07/04 04:21:53;;;;;;;5.5;4.5;;;;;;;14.78;100;962.221;;;;
2020/07/04 04:24:18;;;;;;;6.1;4.2;;;;;;;14.79;100;962.1852;;;;
2020/07/04 04:26:45;;;;;;;5.8;4.6;;;;;;;14.75;100;962.2219;;;;
2020/07/04 04:29:10;;;;;;;6.3;4.2;;;;;;;14.79;100;962.1917;;;;
2020/07/04 04:31:37;;;;;;;5.2;4.1;;;;;;;14.9;100;962.1188;;;;
2020/07/04 04:34:02;;;;;;;4.6;3.9;;;;;;;14.95;100;962.1508;;;;
2020/07/04 04:36:27;;;;;;;5.9;3.9;;;;;;;14.99;100;962.1775;;;;
2020/07/04 04:38:55;;;;;;;7.2;4.7;;;;;;;14.9;100;962.1786;;;;
2020/07/04 04:41:20;;;;;;;5.5;4.4;;;;;;;14.75;100;962.1595;;;;
2020/07/04 04:43:45;;;;;;;5.1;4.6;;;;;;;14.86;100;962.1986;;;;
2020/07/04 04:46:10;;;;;;;5.1;4.6;;;;;;;14.95;100;962.2625;;;;
2020/07/04 04:48:36;;;;;;;5.2;4.6;;;;;;;14.85;100;962.2283;;;;
2020/07/04 04:51:01;;;;;;;6.5;4.3;;;;;;;14.95;100;962.2698;;;;
2020/07/04 04:53:26;;;;;;;5.1;4.6;;;;;;;15.01;100;962.2406;;;;
2020/07/04 04:55:51;;;;;;;6.2;4.8;;;;;;;14.91;100;962.2491;;;;
2020/07/04 04:58:17;;;;;;;5.5;4.4;;;;;;;15.08;100;962.2388;;;;
2020/07/04 05:00:42;;;;;;;4.8;4.1;;;;;;;15.1;100;962.2486;;;;
2020/07/04 05:03:09;;;;;;;6.1;4.6;;;;;;;15.27;100;962.2734;;;;
2020/07/04 05:05:34;;;;;;;5.2;4.5;;;;;;;15.26;100;962.2981;;;;
2020/07/04 05:08:01;;;;;;;5.3;4.8;;;;;;;15.25;100;962.3594;;;;
2020/07/04 05:10:26;;;;;;;8.7;4.6;;;;;;;15.32;100;962.3083;;;;
2020/07/04 05:12:51;;;;;;;5.1;4.4;;;;;;;15.36;100;962.361;;;;
2020/07/04 05:15:16;;;;;;;8.2;5.1;;;;;;;15.33;100;962.3616;;;;
2020/07/04 05:17:44;;;;;;;6.5;4.5;;;;;;;15.43;100;962.4334;;;;
2020/07/04 05:20:09;;;;;;;5;4.4;;;;;;;15.47;100;962.4412;;;;
2020/07/04 05:22:36;;;;;;;7.3;4.5;;;;;;;15.54;100;962.4455;;;;
2020/07/04 05:25:01;;;;;;;5.6;4.3;;;;;;;15.55;100;962.4568;;;;
2020/07/04 05:27:28;;;;;;;6;4.5;;;;;;;15.68;100;962.4128;;;;
2020/07/04 05:29:53;;;;;;;8.2;4.5;;;;;;;15.58;100;962.4357;;;;
2020/07/04 05:32:19;;;;;;;5;4.4;;;;;;;15.75;100;962.4401;;;;
2020/07/04 05:34:44;;;;;;;6.1;4.5;;;;;;;15.87;100;962.4266;;;;
2020/07/04 05:37:10;;;;;;;5.5;4.3;;;;;;;15.89;100;962.42;;;;
2020/07/04 05:39:35;;;;;;;6.4;4.3;;;;;;;15.91;100;962.4174;;;;
2020/07/04 05:42:01;;;;;;;6.6;4.3;;;;;;;15.93;100;962.4883;;;;
2020/07/04 05:44:26;;;;;;;5;3.8;;;;;;;15.95;100;962.5213;;;;
2020/07/04 05:46:53;;;;;;;6.3;4.4;;;;;;;15.85;100;962.4981;;;;
2020/07/04 05:49:18;;;;;;;6.9;4.1;;;;;;;15.93;100;962.5031;;;;
2020/07/04 05:51:44;;;;;;;7.7;4.1;;;;;;;16.04;100;962.5389;;;;
2020/07/04 05:54:09;;;;;;;6.8;4.5;;;;;;;16.08;100;962.5389;;;;
2020/07/04 05:56:34;;;;;;;9.5;4.6;;;;;;;16.12;100;962.5463;;;;
2020/07/04 05:59:00;;;;;;;7.3;4.1;;;;;;;16.28;100;962.5797;;;;
2020/07/04 06:01:26;;;;;;;7.1;4.1;;;;;;;16.23;100;962.6083;;;;
2020/07/04 06:03:51;;;;;;;5.7;4.1;;;;;;;16.23;100;962.6206;;;;
2020/07/04 06:06:18;;;;;;;5.8;4;;;;;;;16.39;100;962.6487;;;;
2020/07/04 06:08:43;;;;;;;6.3;3.8;;;;;;;16.58;100;962.6376;;;;
2020/07/04 06:11:09;;;;;;;5.1;4;;;;;;;16.52;100;962.6417;;;;
2020/07/04 06:13:34;;;;;;;6;4.1;;;;;;;16.54;100;962.6061;;;;
2020/07/04 06:16:03;;;;;;;5.4;3.8;;;;;;;16.65;100;962.6317;;;;
2020/07/04 06:18:28;;;;;;;5.9;3.6;;;;;;;16.77;100;962.6361;;;;
2020/07/04 06:20:54;;;;;;;5.4;3.8;;;;;;;16.81;100;962.6668;;;;
2020/07/04 06:23:19;;;;;;;4.2;3.4;;;;;;;16.98;100;962.7266;;;;
2020/07/04 06:25:48;;;;;;;6.3;3.5;;;;;;;17.04;100;962.7463;;;;
2020/07/04 06:28:13;;;;;;;6.5;3.9;;;;;;;17.12;100;962.776;;;;
2020/07/04 06:30:38;;;;;;;6.5;3.4;;;;;;;17.26;100;962.7517;;;;
2020/07/04 06:33:04;;;;;;;5.7;3.3;;;;;;;17.33;100;962.8333;;;;
2020/07/04 06:35:29;;;;;;;5.6;3.6;;;;;;;17.41;100;962.8131;;;;
2020/07/04 06:37:54;;;;;;;5.9;3.8;;;;;;;17.33;100;962.83;;;;
2020/07/04 06:40:24;;;;;;;6.7;4.2;;;;;;;17.48;100;962.8362;;;;
2020/07/04 06:42:49;;;;;;;4.6;3.2;;;;;;;17.6;100;962.8342;;;;
2020/07/04 06:45:14;;;;;;;6.9;4;;;;;;;17.7;100;962.8734;;;;
2020/07/04 06:47:39;;;;;;;6.3;3.8;;;;;;;17.8;100;962.8748;;;;
2020/07/04 06:50:04;;;;;;;5.9;3.3;;;;;;;17.81;100;962.9196;;;;
2020/07/04 06:52:29;;;;;;;5.3;3.3;;;;;;;17.75;100;962.8956;;;;
2020/07/04 06:54:55;;;;;;;4.8;2.9;;;;;;;17.63;100;962.8976;;;;
2020/07/04 06:57:21;;;;;;;4.7;3.2;;;;;;;17.77;100;962.8552;;;;
2020/07/04 06:59:47;;;;;;;5.6;3.4;;;;;;;17.87;100;962.8831;;;;
2020/07/04 07:02:12;;;;;;;5.4;3.1;;;;;;;17.9;100;962.967;;;;
2020/07/04 07:04:37;;;;;;;5.2;2.8;;;;;;;18.13;100;962.9694;;;;
2020/07/04 07:07:02;;;;;;;4;2.8;;;;;;;17.9;100;962.9192;;;;
2020/07/04 07:09:29;;;;;;;4.9;2.9;;;;;;;17.88;100;962.8796;;;;
2020/07/04 07:11:54;;;;;;;3.9;2.8;;;;;;;18.05;100;962.8806;;;;
2020/07/04 07:14:19;;;;;;;3.8;2.2;;;;;;;18.22;100;962.8449;;;;
2020/07/04 07:16:44;;;;;;;3.8;2.4;;;;;;;18.3;100;962.9015;;;;
2020/07/04 07:19:10;;;;;;;4;2.7;;;;;;;18.35;100;962.9202;;;;
2020/07/04 07:21:35;;;;;;;3.9;2.3;;;;;;;18.43;100;962.8215;;;;
2020/07/04 07:24:00;;;;;;;3.7;2.1;;;;;;;18.53;100;962.8605;;;;
2020/07/04 07:26:25;;;;;;;3.9;2.2;;;;;;;18.67;100;962.8834;;;;
2020/07/04 07:28:50;;;;;;;4.2;1.8;;;;;;;18.61;95.14551;962.9045;;;;
2020/07/04 07:31:15;;;;;;;3.2;1.8;;;;;;;18.6;91.62695;962.8986;;;;
2020/07/04 07:33:40;;;;;;;2.9;1.8;;;;;;;18.78;90.2666;962.863;;;;
2020/07/04 07:36:05;;;;;;;3.6;1.6;;;;;;;18.73;86.68066;962.8933;;;;
2020/07/04 07:38:31;;;;;;;2.6;1.8;;;;;;;18.63;91.05762;962.8563;;;;
2020/07/04 07:40:56;;;;;;;3.9;1.9;;;;;;;18.64;92.08008;962.831;;;;
2020/07/04 07:43:22;;;;;;;3.9;1.9;;;;;;;18.9;92.65039;962.8035;;;;
2020/07/04 07:45:47;;;;;;;4.4;1.9;;;;;;;18.91;89.69629;962.82;;;;
2020/07/04 07:48:12;;;;;;;4.6;2.3;;;;;;;18.93;87.75195;962.8206;;;;
2020/07/04 07:50:38;;;;;;;3.1;1.8;;;;;;;19.01;91.91016;962.8017;;;;
2020/07/04 07:53:04;;;;;;;2.4;1.8;;;;;;;19.29;93.51758;962.7692;;;;
2020/07/04 07:55:29;;;;;;;4.4;2;;;;;;;19.12;89.49316;962.7686;;;;
2020/07/04 07:57:55;;;;;;;3.5;2;;;;;;;19.27;89.26367;962.7391;;;;
2020/07/04 08:00:20;;;;;;;3.3;1.6;;;;;;;19.44;89.1123;962.7779;;;;
2020/07/04 08:02:46;;;;;;;3.5;2.1;;;;;;;19.58;83.5;962.782;;;;
2020/07/04 08:05:11;;;;;;;3.6;1.6;;;;;;;19.57;89.06738;962.7573;;;;
2020/07/04 08:07:36;;;;;;;3.2;1.5;;;;;;;19.66;87.05176;962.7452;;;;
2020/07/04 08:10:01;;;;;;;3.3;1.6;;;;;;;19.75;78.68945;962.8161;;;;
2020/07/04 08:12:26;;;;;;;3.3;1.5;;;;;;;19.55;73.34375;962.7277;;;;
2020/07/04 08:14:52;;;;;;;3.6;1.5;;;;;;;19.66;77.64941;962.6766;;;;
2020/07/04 08:17:17;;;;;;;4.3;1.6;;;;;;;19.58;78.88281;962.6613;;;;
2020/07/04 08:19:43;;;;;;;4.5;1.8;;;;;;;19.64;79.44629;962.6541;;;;
2020/07/04 08:22:08;;;;;;;2.7;1.4;;;;;;;19.78;81.65625;962.6372;;;;
2020/07/04 08:24:33;;;;;;;2.9;1.2;;;;;;;19.85;76.99121;962.5898;;;;
2020/07/04 08:26:58;;;;;;;2.4;1.5;;;;;;;19.91;77.4248;962.6609;;;;
2020/07/04 08:29:23;;;;;;;3.2;1.7;;;;;;;19.88;76.61914;962.6069;;;;
2020/07/04 08:31:49;;;;;;;3.1;1.7;;;;;;;19.89;74.66895;962.6033;;;;
2020/07/04 08:34:14;;;;;;;3.1;1.9;;;;;;;19.76;74.03711;962.591;;;;
2020/07/04 08:36:40;;;;;;;5;1.8;;;;;;;19.69;74.70605;962.5605;;;;
2020/07/04 08:39:05;;;;;;;2.8;1.6;;;;;;;19.93;73.85352;962.6105;;;;
2020/07/04 08:41:32;;;;;;;2.7;1.4;;;;;;;19.97;70.53125;962.6089;;;;
2020/07/04 08:43:57;;;;;;;3.2;1.3;;;;;;;20.09;72.69238;962.5809;;;;
2020/07/04 08:46:22;;;;;;;3.7;1.6;;;;;;;19.89;71.12988;962.6157;;;;
2020/07/04 08:48:47;;;;;;;3.7;1.7;;;;;;;19.82;72.01172;962.6274;;;;
2020/07/04 08:51:12;;;;;;;5.2;2;;;;;;;19.83;72.17969;962.6678;;;;
2020/07/04 08:53:37;;;;;;;3.2;1.7;;;;;;;19.59;71.95215;962.6628;;;;
2020/07/04 08:56:02;;;;;;;3.2;1.6;;;;;;;19.75;71.71875;962.6558;;;;
2020/07/04 08:58:28;;;;;;;4;1.6;;;;;;;19.81;76.72559;962.6657;;;;
2020/07/04 09:00:53;;;;;;;2.8;1.5;;;;;;;19.98;72.46289;962.6272;;;;
2020/07/04 09:03:18;;;;;;;3.9;1.5;;;;;;;20.05;73.27441;962.6692;;;;
2020/07/04 09:05:43;;;;;;;3;1.5;;;;;;;19.81;73.16211;962.6616;;;;
2020/07/04 09:08:08;;;;;;;5.3;1.9;;;;;;;20.08;74.61816;962.6367;;;;
2020/07/04 09:10:35;;;;;;;2.9;1.6;;;;;;;19.86;73.50098;962.6699;;;;
2020/07/04 09:13:00;;;;;;;3.2;1.6;;;;;;;19.69;75.31934;962.6513;;;;
2020/07/04 09:15:25;;;;;;;5;1.7;;;;;;;19.87;74.7832;962.6228;;;;
2020/07/04 09:17:50;;;;;;;2.9;1.6;;;;;;;20.03;74.55176;962.6156;;;;
2020/07/04 09:20:15;;;;;;;3.7;1.9;;;;;;;20.1;75.30566;962.6138;;;;
2020/07/04 09:23:14;;;;;;;3;1.7;;;;;;;20.07;73.00684;962.6217;;;;
2020/07/04 09:25:39;;;;;;;3.7;1.7;;;;;;;20.18;72.96582;962.6119;;;;
2020/07/04 09:28:04;;;;;;;3.2;1.9;;;;;;;20.17;74.15234;962.6122;;;;
2020/07/04 09:30:29;;;;;;;2.7;1.6;;;;;;;20.24;74.16504;962.6351;;;;
2020/07/04 09:32:54;;;;;;;3.7;1.9;;;;;;;20.16;73.85742;962.6156;;;;
2020/07/04 09:35:19;;;;;;;3.8;1.7;;;;;;;20.41;76.4873;962.57;;;;
2020/07/04 09:37:44;;;;;;;3.3;1.7;;;;;;;20.51;79.11914;962.5832;;;;
2020/07/04 09:40:09;;;;;;;4.1;1.6;;;;;;;20.54;76.49902;962.5823;;;;
2020/07/04 09:42:35;;;;;;;3;1.5;;;;;;;20.59;75.57813;962.5369;;;;
2020/07/04 09:45:00;;;;;;;3.4;1.9;;;;;;;20.56;78.45605;962.5291;;;;
2020/07/04 09:47:25;;;;;;;3;1.6;;;;;;;20.7;73.51074;962.4938;;;;
2020/07/04 09:49:50;;;;;;;4.1;1.6;;;;;;;20.73;70.52344;962.5137;;;;
2020/07/04 09:52:15;;;;;;;3;1.4;;;;;;;21.04;69.72461;962.4922;;;;
2020/07/04 09:54:40;;;;;;;3.2;1.3;;;;;;;21.09;68.36426;962.5078;;;;
2020/07/04 09:57:06;;;;;;;3;1.6;;;;;;;20.96;67.1543;962.4431;;;;
2020/07/04 09:59:31;;;;;;;2.9;1.4;;;;;;;21.05;65.7168;962.4639;;;;
2020/07/04 10:01:56;;;;;;;4.1;1.6;;;;;;;21.15;63.52832;962.4415;;;;
2020/07/04 10:04:22;;;;;;;2.2;1.5;;;;;;;21.59;67.09668;962.4433;;;;
2020/07/04 10:06:47;;;;;;;3.4;1.6;;;;;;;21.7;63.59473;962.5168;;;;
2020/07/04 10:09:13;;;;;;;2.6;1.5;;;;;;;21.4;57.84277;962.4752;;;;
2020/07/04 10:11:38;;;;;;;3;1.4;;;;;;;21.36;58.99414;962.4967;;;;
2020/07/04 10:14:04;;;;;;;4.4;2.2;;;;;;;21.55;57.51953;962.4293;;;;
2020/07/04 10:16:29;;;;;;;2.6;1.1;;;;;;;21.79;54.11523;962.452;;;;
2020/07/04 10:18:56;;;;;;;2.5;1.4;;;;;;;22.12;53.46875;962.4615;;;;
2020/07/04 10:21:20;;;;;;;3.2;1.3;;;;;;;22.02;53.02051;962.5037;;;;
2020/07/04 10:23:47;;;;;;;1.9;1.1;;;;;;;22.01;51.50684;962.5069;;;;
2020/07/04 10:26:12;;;;;;;2.4;1.1;;;;;;;22.07;52.44727;962.4384;;;;
2020/07/04 10:28:38;;;;;;;2.9;1.2;;;;;;;22.36;50.68555;962.4498;;;;
2020/07/04 10:31:03;;;;;;;3.2;1.1;;;;;;;22.24;49.42969;962.4086;;;;
2020/07/04 10:33:30;;;;;;;3.3;1;;;;;;;22.17;51.84473;962.4376;;;;
2020/07/04 10:35:55;;;;;;;2.6;1;;;;;;;22.21;52.42773;962.4043;;;;
2020/07/04 10:38:23;;;;;;;3.9;1.4;;;;;;;21.89;54.43457;962.4307;;;;
2020/07/04 10:40:48;;;;;;;4.8;1.5;;;;;;;22.08;54.92969;962.3826;;;;
2020/07/04 10:43:13;;;;;;;2.6;1.3;;;;;;;22.05;54.20508;962.3808;;;;
2020/07/04 10:45:39;;;;;;;2.9;1.5;;;;;;;21.78;55.38965;962.316;;;;
2020/07/04 10:48:06;;;;;;;2.1;1.3;;;;;;;22.06;54.70313;962.3076;;;;
2020/07/04 10:50:31;;;;;;;2.2;1.2;;;;;;;22.14;55.04395;962.2636;;;;
2020/07/04 10:52:57;;;;;;;3.2;1.3;;;;;;;22.21;54.25977;962.2806;;;;
2020/07/04 10:55:22;;;;;;;3.8;1.3;;;;;;;22.4;54.21289;962.2719;;;;
2020/07/04 10:57:48;;;;;;;2.3;1.1;;;;;;;22.71;56.21484;962.1791;;;;
2020/07/04 11:00:13;;;;;;;2.3;1.1;;;;;;;22.95;54.89648;962.1901;;;;
2020/07/04 11:02:39;;;;;;;2.5;1.4;;;;;;;22.95;54.31641;962.1618;;;;
2020/07/04 11:05:04;;;;;;;3.3;1.2;;;;;;;22.49;52.92285;962.1113;;;;
2020/07/04 11:07:29;;;;;;;2.1;1.1;;;;;;;22.56;52.84863;962.0414;;;;
2020/07/04 11:09:55;;;;;;;2.8;1.5;;;;;;;22.18;53.58301;962.0239;;;;
2020/07/04 11:12:20;;;;;;;2.4;1.3;;;;;;;22.26;53.55762;962.1017;;;;
2020/07/04 11:14:45;;;;;;;2.9;1.2;;;;;;;22.46;54.46875;962.0005;;;;
2020/07/04 11:17:10;;;;;;;2.3;1.1;;;;;;;22.95;55.34375;961.9734;;;;
2020/07/04 11:19:36;;;;;;;2.2;1.2;;;;;;;22.94;54.48047;962.027;;;;
2020/07/04 11:22:02;;;;;;;1.9;1.1;;;;;;;22.6;55.05371;961.9426;;;;
2020/07/04 11:24:27;;;;;;;1.5;1.1;;;;;;;22.79;55.47949;961.9833;;;;
2020/07/04 11:26:52;;;;;;;2.1;1.3;;;;;;;22.93;54.66699;961.9967;;;;
2020/07/04 11:29:17;;;;;;;1.9;1;;;;;;;23.03;55.46191;961.9227;;;;
2020/07/04 11:31:42;;;;;;;1.8;1.2;;;;;;;23.28;54.10547;961.9163;;;;
2020/07/04 11:34:07;;;;;;;2.2;1.1;;;;;;;23.37;53.60742;961.894;;;;
2020/07/04 11:36:33;;;;;;;2.2;1.2;;;;;;;23.38;53.44336;961.8858;;;;
2020/07/04 11:38:58;;;;;;;2.4;1.2;;;;;;;23.1;53.58789;961.8577;;;;
2020/07/04 11:41:24;;;;;;;2.4;1.2;;;;;;;22.89;54.92285;961.8996;;;;
2020/07/04 11:43:49;;;;;;;2.4;1.2;;;;;;;23.09;55.10156;961.8539;;;;
2020/07/04 11:46:16;;;;;;;1.5;1.2;;;;;;;23.38;54.26074;961.9003;;;;
2020/07/04 11:48:41;;;;;;;2.3;1.2;;;;;;;23.27;53.60742;961.8458;;;;
2020/07/04 11:51:08;;;;;;;3.1;1.2;;;;;;;23.22;53.67285;961.764;;;;
2020/07/04 11:53:33;;;;;;;2.2;1.3;;;;;;;23.56;54.35449;961.7828;;;;
2020/07/04 11:55:59;;;;;;;1.5;1.2;;;;;;;23.33;54.19531;961.6794;;;;
2020/07/04 11:58:24;;;;;;;1.8;1.2;;;;;;;23.61;53.44824;961.7173;;;;
2020/07/04 12:00:49;;;;;;;2.7;1.4;;;;;;;23.62;50.31738;961.6978;;;;
2020/07/04 12:03:14;;;;;;;2.3;1.2;;;;;;;23.52;50.2832;961.7299;;;;
2020/07/04 12:05:40;;;;;;;2.1;1;;;;;;;23.62;50.11621;961.7488;;;;
2020/07/04 12:08:05;;;;;;;2.8;1.2;;;;;;;23.55;51.11816;961.6306;;;;
2020/07/04 12:10:30;;;;;;;2.8;1.2;;;;;;;23.69;52.07031;961.5701;;;;
2020/07/04 12:12:56;;;;;;;3.5;1.4;;;;;;;23.66;54.95898;961.551;;;;
2020/07/04 12:15:22;;;;;;;3.3;1.4;;;;;;;23.35;53.59473;961.5691;;;;
2020/07/04 12:17:48;;;;;;;3.1;1.1;;;;;;;23.1;53.69336;961.5578;;;;
2020/07/04 12:20:13;;;;;;;3;1.1;;;;;;;23.1;55.2207;961.5419;;;;
2020/07/04 12:22:40;;;;;;;2;1.2;;;;;;;23.33;53.47266;961.5247;;;;
2020/07/04 12:25:05;;;;;;;3.1;1.3;;;;;;;23.55;52.52637;961.4853;;;;
2020/07/04 12:27:33;;;;;;;2.4;1.2;;;;;;;23.29;52.03418;961.4844;;;;
2020/07/04 12:29:58;;;;;;;2.5;1.3;;;;;;;23.57;53.08691;961.4736;;;;
2020/07/04 12:32:23;;;;;;;3.2;1.3;;;;;;;23.76;53.07324;961.5228;;;;
2020/07/04 12:34:48;;;;;;;2;1.3;;;;;;;23.59;52.99414;961.4673;;;;
2020/07/04 12:37:13;;;;;;;2.3;1.1;;;;;;;23.38;52.875;961.4283;;;;
2020/07/04 12:39:38;;;;;;;2.2;1.2;;;;;;;23.34;53.02344;961.4188;;;;
2020/07/04 12:42:03;;;;;;;3.3;1.4;;;;;;;23.7;54.16992;961.4196;;;;
2020/07/04 12:44:28;;;;;;;2.3;1.2;;;;;;;23.95;52.58691;961.3459;;;;
2020/07/04 12:46:53;;;;;;;2.7;1.1;;;;;;;24.17;55.05664;961.3818;;;;
2020/07/04 12:49:19;;;;;;;2.6;1.2;;;;;;;24.34;55.98145;961.3113;;;;
2020/07/04 12:51:44;;;;;;;4.3;1.2;;;;;;;24.26;54.59473;961.319;;;;
2020/07/04 12:54:09;;;;;;;4.6;1.5;;;;;;;24.26;53.69238;961.314;;;;
2020/07/04 12:56:34;;;;;;;2.4;1.2;;;;;;;24.41;52.52246;961.3759;;;;
2020/07/04 12:58:59;;;;;;;1.3;1.1;;;;;;;24.49;52.3418;961.4283;;;;
2020/07/04 13:01:26;;;;;;;2.8;1.3;;;;;;;24.32;55.07617;961.3962;;;;
2020/07/04 13:03:52;;;;;;;1.7;1.2;;;;;;;24.17;52.38672;961.3069;;;;
2020/07/04 13:06:17;;;;;;;2.4;1;;;;;;;23.87;53.44238;961.2054;;;;
2020/07/04 13:08:42;;;;;;;2.7;1.3;;;;;;;23.74;54.75586;961.2619;;;;
2020/07/04 13:11:08;;;;;;;2.9;1.2;;;;;;;23.6;52.54492;961.2372;;;;
2020/07/04 13:13:33;;;;;;;1.7;1.1;;;;;;;23.42;56.8623;961.2249;;;;
2020/07/04 13:15:59;;;;;;;1.6;1.1;;;;;;;23.34;54.16211;961.1816;;;;
2020/07/04 13:18:25;;;;;;;2;1.2;;;;;;;23.34;53.40332;961.2266;;;;
2020/07/04 13:20:51;;;;;;;4;1.4;;;;;;;23.86;53.61914;961.2216;;;;
2020/07/04 13:23:16;;;;;;;2.7;1.1;;;;;;;24.08;53.07715;961.2014;;;;
2020/07/04 13:25:41;;;;;;;2.3;1.2;;;;;;;24.25;51.90918;961.1342;;;;
2020/07/04 13:28:06;;;;;;;2.1;1.1;;;;;;;24.56;53.08691;961.1161;;;;
2020/07/04 13:30:33;;;;;;;3;1.3;;;;;;;24.42;51.97656;961.0598;;;;
2020/07/04 13:32:58;;;;;;;2.1;1.4;;;;;;;24.14;51.95508;961.067;;;;
2020/07/04 13:35:23;;;;;;;2.6;1.1;;;;;;;24.21;51.98828;961.0339;;;;
2020/07/04 13:37:48;;;;;;;5.8;1.2;;;;;;;24.43;52.90527;961.0377;;;;
2020/07/04 13:40:15;;;;;;;2.4;1;;;;;;;24.24;51.39746;960.9713;;;;
2020/07/04 13:42:40;;;;;;;1.9;1.2;;;;;;;24.7;52.47363;961.0211;;;;
2020/07/04 13:45:07;;;;;;;3;1.2;;;;;;;24.69;51.94824;961.0801;;;;
2020/07/04 13:47:32;;;;;;;1.7;1.2;;;;;;;24.73;53.37988;961.0477;;;;
2020/07/04 13:49:57;;;;;;;3;1.2;;;;;;;24.79;51.30762;961.0397;;;;
2020/07/04 13:52:22;;;;;;;2.2;1.3;;;;;;;24.95;51.33691;961.0369;;;;
2020/07/04 13:54:49;;;;;;;2.6;1.2;;;;;;;25.01;50.39258;960.969;;;;
2020/07/04 13:57:14;;;;;;;2.5;1.2;;;;;;;25.13;48.37109;961.0195;;;;
2020/07/04 13:59:39;;;;;;;2.9;1.2;;;;;;;25.18;51.06543;961.0381;;;;
2020/07/04 14:02:06;;;;;;;3.9;1.3;;;;;;;25.12;49.73828;960.9991;;;;
2020/07/04 14:04:31;;;;;;;2;1.2;;;;;;;25.05;49.92188;960.9972;;;;
2020/07/04 14:06:56;;;;;;;4.9;1.6;;;;;;;25.23;49.89355;960.9877;;;;
2020/07/04 14:09:21;;;;;;;2;1.2;;;;;;;25.21;48.10645;960.9328;;;;
2020/07/04 14:11:46;;;;;;;2.7;1.3;;;;;;;24.97;49.2334;960.8151;;;;
2020/07/04 14:14:12;;;;;;;1.5;1;;;;;;;24.71;49.47852;960.8386;;;;
2020/07/04 14:16:37;;;;;;;3.1;1.1;;;;;;;25.21;50.42676;960.8844;;;;
2020/07/04 14:19:03;;;;;;;6;1.4;;;;;;;25.16;49.2793;960.9294;;;;
2020/07/04 14:21:28;;;;;;;2.7;1.2;;;;;;;25.25;49.20605;960.9305;;;;
2020/07/04 14:23:55;;;;;;;2.2;1.2;;;;;;;25.08;47.89063;960.8936;;;;
2020/07/04 14:26:20;;;;;;;2.6;1.2;;;;;;;25.31;49.64063;960.9373;;;;
2020/07/04 14:28:45;;;;;;;1.9;1.3;;;;;;;25.33;48.61914;960.8929;;;;
2020/07/04 14:31:11;;;;;;;2.6;1.1;;;;;;;25.14;49.00293;960.8762;;;;
2020/07/04 14:33:37;;;;;;;2.7;1.1;;;;;;;25.34;49.17969;960.8694;;;;
2020/07/04 14:36:02;;;;;;;2.2;1.2;;;;;;;25.49;48.33984;960.8813;;;;
2020/07/04 14:38:27;;;;;;;2.1;1.3;;;;;;;25.54;47.34375;960.8267;;;;
2020/07/04 14:40:52;;;;;;;1.6;1.1;;;;;;;25.66;50.02539;960.7745;;;;
2020/07/04 14:43:17;;;;;;;2.8;1.2;;;;;;;25.6;46.87305;960.8947;;;;
2020/07/04 14:45:43;;;;;;;2.7;1.2;;;;;;;24.97;47.77051;960.8894;;;;
2020/07/04 14:48:08;;;;;;;1.9;1.1;;;;;;;25.05;48.89746;960.7739;;;;
2020/07/04 14:50:34;;;;;;;1.3;0.9;;;;;;;25.01;49.09668;960.7435;;;;
2020/07/04 14:52:59;;;;;;;2.1;1.2;;;;;;;25.22;48.33398;960.6945;;;;
2020/07/04 14:55:24;;;;;;;2.3;1.1;;;;;;;25.43;49.27344;960.6399;;;;